sensor_id;sensor_type;location;lat;lon;timestamp;P1;durP1;ratioP1;P2;durP2;ratioP2
71104;SDS011;58760;48.716;8.962;2024-02-21T00:01:47;12.95;;;3.92;;
71104;SDS011;58760;48.716;8.962;2024-02-21T00:04:12;8.82;;;3.63;;
71104;SDS011;58760;48.716;8.962;2024-02-21T00:06:38;12.30;;;3.90;;
71104;SDS011;58760;48.716;8.962;2024-02-21T00:09:03;9.15;;;3.45;;
71104;SDS011;58760;48.716;8.962;2024-02-21T00:11:29;14.27;;;3.75;;
71104;SDS011;58760;48.716;8.962;2024-02-21T00:13:54;8.48;;;3.47;;
71104;SDS011;58760;48.716;8.962;2024-02-21T00:16:20;13.32;;;3.58;;
71104;SDS011;58760;48.716;8.962;2024-02-21T00:18:45;11.38;;;3.65;;
71104;SDS011;58760;48.716;8.962;2024-02-21T00:21:11;11.48;;;3.47;;
71104;SDS011;58760;48.716;8.962;2024-02-21T00:23:43;10.38;;;3.47;;
71104;SDS011;58760;48.716;8.962;2024-02-21T00:26:12;13.20;;;4.20;;
71104;SDS011;58760;48.716;8.962;2024-02-21T00:28:38;9.60;;;3.35;;
71104;SDS011;58760;48.716;8.962;2024-02-21T00:31:04;13.27;;;3.65;;
71104;SDS011;58760;48.716;8.962;2024-02-21T00:33:29;11.13;;;3.20;;
71104;SDS011;58760;48.716;8.962;2024-02-21T00:35:54;13.77;;;4.53;;
71104;SDS011;58760;48.716;8.962;2024-02-21T00:38:20;11.40;;;3.78;;
71104;SDS011;58760;48.716;8.962;2024-02-21T00:40:46;11.77;;;3.58;;
71104;SDS011;58760;48.716;8.962;2024-02-21T00:43:11;9.80;;;3.10;;
71104;SDS011;58760;48.716;8.962;2024-02-21T00:45:36;12.07;;;3.80;;
71104;SDS011;58760;48.716;8.962;2024-02-21T00:48:02;9.95;;;3.33;;
71104;SDS011;58760;48.716;8.962;2024-02-21T00:50:28;8.70;;;3.20;;
71104;SDS011;58760;48.716;8.962;2024-02-21T00:52:54;12.60;;;3.90;;
71104;SDS011;58760;48.716;8.962;2024-02-21T00:55:20;11.38;;;3.38;;
71104;SDS011;58760;48.716;8.962;2024-02-21T00:57:45;8.02;;;2.97;;
71104;SDS011;58760;48.716;8.962;2024-02-21T01:00:11;10.82;;;3.47;;
71104;SDS011;58760;48.716;8.962;2024-02-21T01:02:37;13.35;;;3.50;;
71104;SDS011;58760;48.716;8.962;2024-02-21T01:05:02;11.15;;;3.13;;
71104;SDS011;58760;48.716;8.962;2024-02-21T01:07:27;12.30;;;3.20;;
71104;SDS011;58760;48.716;8.962;2024-02-21T01:09:53;10.18;;;2.75;;
71104;SDS011;58760;48.716;8.962;2024-02-21T01:12:18;9.93;;;3.30;;
71104;SDS011;58760;48.716;8.962;2024-02-21T01:14:44;12.10;;;3.00;;
71104;SDS011;58760;48.716;8.962;2024-02-21T01:17:11;15.18;;;3.45;;
71104;SDS011;58760;48.716;8.962;2024-02-21T01:19:36;12.98;;;3.47;;
71104;SDS011;58760;48.716;8.962;2024-02-21T01:22:02;14.15;;;2.72;;
71104;SDS011;58760;48.716;8.962;2024-02-21T01:24:28;13.77;;;3.47;;
71104;SDS011;58760;48.716;8.962;2024-02-21T01:26:53;13.60;;;3.17;;
71104;SDS011;58760;48.716;8.962;2024-02-21T01:29:19;14.52;;;3.58;;
71104;SDS011;58760;48.716;8.962;2024-02-21T01:31:44;11.30;;;3.45;;
71104;SDS011;58760;48.716;8.962;2024-02-21T01:34:09;11.98;;;3.55;;
71104;SDS011;58760;48.716;8.962;2024-02-21T01:36:35;11.25;;;3.05;;
71104;SDS011;58760;48.716;8.962;2024-02-21T01:39:00;17.52;;;3.67;;
71104;SDS011;58760;48.716;8.962;2024-02-21T01:41:26;15.45;;;3.70;;
71104;SDS011;58760;48.716;8.962;2024-02-21T01:43:51;15.85;;;3.88;;
71104;SDS011;58760;48.716;8.962;2024-02-21T01:46:16;12.57;;;3.28;;
71104;SDS011;58760;48.716;8.962;2024-02-21T01:48:43;12.73;;;3.88;;
71104;SDS011;58760;48.716;8.962;2024-02-21T01:51:11;11.63;;;3.60;;
71104;SDS011;58760;48.716;8.962;2024-02-21T01:53:37;16.25;;;3.65;;
71104;SDS011;58760;48.716;8.962;2024-02-21T01:56:07;15.30;;;3.72;;
71104;SDS011;58760;48.716;8.962;2024-02-21T01:58:35;11.57;;;3.33;;
71104;SDS011;58760;48.716;8.962;2024-02-21T02:01:02;10.73;;;3.00;;
71104;SDS011;58760;48.716;8.962;2024-02-21T02:03:27;9.95;;;3.50;;
71104;SDS011;58760;48.716;8.962;2024-02-21T02:08:20;14.18;;;3.20;;
71104;SDS011;58760;48.716;8.962;2024-02-21T02:10:47;10.50;;;3.30;;
71104;SDS011;58760;48.716;8.962;2024-02-21T02:13:13;9.93;;;2.95;;
71104;SDS011;58760;48.716;8.962;2024-02-21T02:15:45;12.15;;;3.42;;
71104;SDS011;58760;48.716;8.962;2024-02-21T02:18:11;14.02;;;3.05;;
71104;SDS011;58760;48.716;8.962;2024-02-21T02:20:39;10.88;;;2.80;;
71104;SDS011;58760;48.716;8.962;2024-02-21T02:25:42;11.40;;;2.75;;
71104;SDS011;58760;48.716;8.962;2024-02-21T02:28:08;12.90;;;2.80;;
71104;SDS011;58760;48.716;8.962;2024-02-21T02:30:34;15.05;;;3.55;;
71104;SDS011;58760;48.716;8.962;2024-02-21T02:33:04;14.38;;;3.25;;
71104;SDS011;58760;48.716;8.962;2024-02-21T02:35:30;10.23;;;2.85;;
71104;SDS011;58760;48.716;8.962;2024-02-21T02:37:55;12.93;;;3.28;;
71104;SDS011;58760;48.716;8.962;2024-02-21T02:40:21;7.85;;;2.45;;
71104;SDS011;58760;48.716;8.962;2024-02-21T02:42:47;11.30;;;3.03;;
71104;SDS011;58760;48.716;8.962;2024-02-21T02:45:14;9.27;;;3.08;;
71104;SDS011;58760;48.716;8.962;2024-02-21T02:47:40;10.35;;;2.85;;
71104;SDS011;58760;48.716;8.962;2024-02-21T02:50:06;13.88;;;3.13;;
71104;SDS011;58760;48.716;8.962;2024-02-21T02:52:33;14.35;;;3.60;;
71104;SDS011;58760;48.716;8.962;2024-02-21T02:54:58;11.13;;;3.38;;
71104;SDS011;58760;48.716;8.962;2024-02-21T02:57:24;10.60;;;3.25;;
71104;SDS011;58760;48.716;8.962;2024-02-21T02:59:49;15.55;;;3.17;;
71104;SDS011;58760;48.716;8.962;2024-02-21T03:02:16;12.27;;;3.25;;
71104;SDS011;58760;48.716;8.962;2024-02-21T03:04:41;11.23;;;3.65;;
71104;SDS011;58760;48.716;8.962;2024-02-21T03:07:06;10.85;;;3.45;;
71104;SDS011;58760;48.716;8.962;2024-02-21T03:09:32;9.30;;;3.20;;
71104;SDS011;58760;48.716;8.962;2024-02-21T03:11:57;13.65;;;3.25;;
71104;SDS011;58760;48.716;8.962;2024-02-21T03:14:28;11.45;;;3.10;;
71104;SDS011;58760;48.716;8.962;2024-02-21T03:16:53;10.75;;;2.78;;
71104;SDS011;58760;48.716;8.962;2024-02-21T03:19:19;9.70;;;2.80;;
71104;SDS011;58760;48.716;8.962;2024-02-21T03:21:44;10.05;;;2.88;;
71104;SDS011;58760;48.716;8.962;2024-02-21T03:24:10;11.88;;;3.28;;
71104;SDS011;58760;48.716;8.962;2024-02-21T03:26:35;8.18;;;2.67;;
71104;SDS011;58760;48.716;8.962;2024-02-21T03:29:00;10.68;;;3.28;;
71104;SDS011;58760;48.716;8.962;2024-02-21T03:31:26;11.90;;;3.10;;
71104;SDS011;58760;48.716;8.962;2024-02-21T03:33:51;8.27;;;2.65;;
71104;SDS011;58760;48.716;8.962;2024-02-21T03:36:17;9.45;;;3.15;;
71104;SDS011;58760;48.716;8.962;2024-02-21T03:38:42;11.35;;;2.92;;
71104;SDS011;58760;48.716;8.962;2024-02-21T03:41:08;13.75;;;3.00;;
71104;SDS011;58760;48.716;8.962;2024-02-21T03:43:33;14.80;;;3.15;;
71104;SDS011;58760;48.716;8.962;2024-02-21T03:45:58;10.25;;;3.03;;
71104;SDS011;58760;48.716;8.962;2024-02-21T03:48:24;12.35;;;3.20;;
71104;SDS011;58760;48.716;8.962;2024-02-21T03:50:49;9.45;;;2.85;;
71104;SDS011;58760;48.716;8.962;2024-02-21T03:53:16;16.42;;;3.38;;
71104;SDS011;58760;48.716;8.962;2024-02-21T03:55:42;8.88;;;2.88;;
71104;SDS011;58760;48.716;8.962;2024-02-21T03:58:07;9.50;;;2.90;;
71104;SDS011;58760;48.716;8.962;2024-02-21T04:00:33;10.20;;;2.83;;
71104;SDS011;58760;48.716;8.962;2024-02-21T04:02:58;8.93;;;2.67;;
71104;SDS011;58760;48.716;8.962;2024-02-21T04:05:23;12.50;;;3.13;;
71104;SDS011;58760;48.716;8.962;2024-02-21T04:07:49;9.82;;;3.00;;
71104;SDS011;58760;48.716;8.962;2024-02-21T04:10:14;10.48;;;3.28;;
71104;SDS011;58760;48.716;8.962;2024-02-21T04:12:40;9.38;;;2.75;;
71104;SDS011;58760;48.716;8.962;2024-02-21T04:15:05;10.07;;;2.55;;
71104;SDS011;58760;48.716;8.962;2024-02-21T04:17:31;9.45;;;2.95;;
71104;SDS011;58760;48.716;8.962;2024-02-21T04:20:01;10.20;;;2.70;;
71104;SDS011;58760;48.716;8.962;2024-02-21T04:22:30;12.48;;;2.80;;
71104;SDS011;58760;48.716;8.962;2024-02-21T04:24:59;11.75;;;2.78;;
71104;SDS011;58760;48.716;8.962;2024-02-21T04:27:25;10.63;;;3.38;;
71104;SDS011;58760;48.716;8.962;2024-02-21T04:29:50;12.73;;;2.85;;
71104;SDS011;58760;48.716;8.962;2024-02-21T04:32:15;12.05;;;2.83;;
71104;SDS011;58760;48.716;8.962;2024-02-21T04:34:41;11.43;;;2.85;;
71104;SDS011;58760;48.716;8.962;2024-02-21T04:37:06;14.02;;;2.83;;
71104;SDS011;58760;48.716;8.962;2024-02-21T04:39:32;10.50;;;2.60;;
71104;SDS011;58760;48.716;8.962;2024-02-21T04:41:58;9.20;;;2.80;;
71104;SDS011;58760;48.716;8.962;2024-02-21T04:44:23;10.25;;;2.80;;
71104;SDS011;58760;48.716;8.962;2024-02-21T04:46:48;9.40;;;2.78;;
71104;SDS011;58760;48.716;8.962;2024-02-21T04:49:14;8.43;;;2.47;;
71104;SDS011;58760;48.716;8.962;2024-02-21T04:51:40;7.72;;;2.80;;
71104;SDS011;58760;48.716;8.962;2024-02-21T04:54:06;14.00;;;2.78;;
71104;SDS011;58760;48.716;8.962;2024-02-21T04:56:31;9.40;;;2.55;;
71104;SDS011;58760;48.716;8.962;2024-02-21T04:58:57;9.80;;;2.50;;
71104;SDS011;58760;48.716;8.962;2024-02-21T05:01:22;10.38;;;2.50;;
71104;SDS011;58760;48.716;8.962;2024-02-21T05:03:48;7.60;;;2.30;;
71104;SDS011;58760;48.716;8.962;2024-02-21T05:06:13;7.78;;;2.20;;
71104;SDS011;58760;48.716;8.962;2024-02-21T05:08:39;8.50;;;2.30;;
71104;SDS011;58760;48.716;8.962;2024-02-21T05:11:05;10.68;;;2.22;;
71104;SDS011;58760;48.716;8.962;2024-02-21T05:13:30;11.30;;;2.13;;
71104;SDS011;58760;48.716;8.962;2024-02-21T05:15:56;8.98;;;2.35;;
71104;SDS011;58760;48.716;8.962;2024-02-21T05:18:21;8.00;;;1.95;;
71104;SDS011;58760;48.716;8.962;2024-02-21T05:20:47;10.68;;;2.13;;
71104;SDS011;58760;48.716;8.962;2024-02-21T05:23:12;7.28;;;2.20;;
71104;SDS011;58760;48.716;8.962;2024-02-21T05:25:38;10.05;;;2.20;;
71104;SDS011;58760;48.716;8.962;2024-02-21T05:28:03;12.77;;;2.40;;
71104;SDS011;58760;48.716;8.962;2024-02-21T05:30:31;10.52;;;2.28;;
71104;SDS011;58760;48.716;8.962;2024-02-21T05:32:56;12.10;;;2.50;;
71104;SDS011;58760;48.716;8.962;2024-02-21T05:35:28;11.93;;;2.88;;
71104;SDS011;58760;48.716;8.962;2024-02-21T05:37:54;9.70;;;2.42;;
71104;SDS011;58760;48.716;8.962;2024-02-21T05:40:19;10.02;;;2.78;;
71104;SDS011;58760;48.716;8.962;2024-02-21T05:42:51;10.32;;;2.80;;
71104;SDS011;58760;48.716;8.962;2024-02-21T05:45:17;12.45;;;2.95;;
71104;SDS011;58760;48.716;8.962;2024-02-21T05:47:49;10.18;;;2.90;;
71104;SDS011;58760;48.716;8.962;2024-02-21T05:50:17;9.23;;;2.58;;
71104;SDS011;58760;48.716;8.962;2024-02-21T05:52:46;11.60;;;3.25;;
71104;SDS011;58760;48.716;8.962;2024-02-21T05:55:12;14.70;;;3.38;;
71104;SDS011;58760;48.716;8.962;2024-02-21T05:57:37;12.30;;;3.20;;
71104;SDS011;58760;48.716;8.962;2024-02-21T06:00:04;14.65;;;2.80;;
71104;SDS011;58760;48.716;8.962;2024-02-21T06:02:30;8.77;;;2.60;;
71104;SDS011;58760;48.716;8.962;2024-02-21T06:04:56;10.10;;;2.67;;
71104;SDS011;58760;48.716;8.962;2024-02-21T06:07:24;9.73;;;2.80;;
71104;SDS011;58760;48.716;8.962;2024-02-21T06:09:50;10.65;;;2.83;;
71104;SDS011;58760;48.716;8.962;2024-02-21T06:12:15;9.85;;;2.78;;
71104;SDS011;58760;48.716;8.962;2024-02-21T06:14:41;14.65;;;3.03;;
71104;SDS011;58760;48.716;8.962;2024-02-21T06:17:07;10.60;;;2.88;;
71104;SDS011;58760;48.716;8.962;2024-02-21T06:19:32;8.05;;;2.50;;
71104;SDS011;58760;48.716;8.962;2024-02-21T06:21:58;9.18;;;2.97;;
71104;SDS011;58760;48.716;8.962;2024-02-21T06:24:26;12.50;;;3.30;;
71104;SDS011;58760;48.716;8.962;2024-02-21T06:26:52;12.38;;;3.40;;
71104;SDS011;58760;48.716;8.962;2024-02-21T06:29:21;13.02;;;2.80;;
71104;SDS011;58760;48.716;8.962;2024-02-21T06:32:24;8.55;;;2.60;;
71104;SDS011;58760;48.716;8.962;2024-02-21T06:34:56;7.88;;;2.63;;
71104;SDS011;58760;48.716;8.962;2024-02-21T06:37:22;10.23;;;2.63;;
71104;SDS011;58760;48.716;8.962;2024-02-21T06:39:47;10.27;;;2.60;;
71104;SDS011;58760;48.716;8.962;2024-02-21T06:42:13;8.50;;;2.33;;
71104;SDS011;58760;48.716;8.962;2024-02-21T06:44:39;9.02;;;2.42;;
71104;SDS011;58760;48.716;8.962;2024-02-21T06:47:06;7.30;;;2.53;;
71104;SDS011;58760;48.716;8.962;2024-02-21T06:49:32;8.07;;;2.42;;
71104;SDS011;58760;48.716;8.962;2024-02-21T06:51:58;7.43;;;2.05;;
71104;SDS011;58760;48.716;8.962;2024-02-21T06:54:33;6.75;;;1.92;;
71104;SDS011;58760;48.716;8.962;2024-02-21T06:56:59;10.30;;;2.35;;
71104;SDS011;58760;48.716;8.962;2024-02-21T06:59:25;10.15;;;2.40;;
71104;SDS011;58760;48.716;8.962;2024-02-21T07:01:54;8.00;;;1.98;;
71104;SDS011;58760;48.716;8.962;2024-02-21T07:04:22;9.38;;;2.55;;
71104;SDS011;58760;48.716;8.962;2024-02-21T07:06:47;8.77;;;2.15;;
71104;SDS011;58760;48.716;8.962;2024-02-21T07:09:13;7.65;;;2.75;;
71104;SDS011;58760;48.716;8.962;2024-02-21T07:11:38;8.63;;;2.28;;
71104;SDS011;58760;48.716;8.962;2024-02-21T07:14:04;8.50;;;2.58;;
71104;SDS011;58760;48.716;8.962;2024-02-21T07:16:32;14.23;;;2.83;;
71104;SDS011;58760;48.716;8.962;2024-02-21T07:18:58;8.73;;;2.60;;
71104;SDS011;58760;48.716;8.962;2024-02-21T07:21:23;9.73;;;2.95;;
71104;SDS011;58760;48.716;8.962;2024-02-21T07:23:49;13.55;;;2.85;;
71104;SDS011;58760;48.716;8.962;2024-02-21T07:26:14;11.25;;;2.95;;
71104;SDS011;58760;48.716;8.962;2024-02-21T07:28:39;9.95;;;2.80;;
71104;SDS011;58760;48.716;8.962;2024-02-21T07:31:05;11.75;;;2.85;;
71104;SDS011;58760;48.716;8.962;2024-02-21T07:33:30;10.43;;;2.60;;
71104;SDS011;58760;48.716;8.962;2024-02-21T07:35:56;9.60;;;2.72;;
71104;SDS011;58760;48.716;8.962;2024-02-21T07:38:22;10.20;;;2.60;;
71104;SDS011;58760;48.716;8.962;2024-02-21T07:40:47;9.32;;;2.83;;
71104;SDS011;58760;48.716;8.962;2024-02-21T07:43:13;7.65;;;2.40;;
71104;SDS011;58760;48.716;8.962;2024-02-21T07:45:38;7.72;;;2.50;;
71104;SDS011;58760;48.716;8.962;2024-02-21T07:48:07;10.27;;;2.55;;
71104;SDS011;58760;48.716;8.962;2024-02-21T07:50:33;8.57;;;2.47;;
71104;SDS011;58760;48.716;8.962;2024-02-21T07:52:58;12.48;;;2.40;;
71104;SDS011;58760;48.716;8.962;2024-02-21T07:55:24;11.43;;;2.22;;
71104;SDS011;58760;48.716;8.962;2024-02-21T07:57:49;9.30;;;2.30;;
71104;SDS011;58760;48.716;8.962;2024-02-21T08:00:15;14.50;;;2.72;;
71104;SDS011;58760;48.716;8.962;2024-02-21T08:02:53;9.85;;;2.30;;
71104;SDS011;58760;48.716;8.962;2024-02-21T08:05:19;10.38;;;2.42;;
71104;SDS011;58760;48.716;8.962;2024-02-21T08:07:44;8.75;;;2.22;;
71104;SDS011;58760;48.716;8.962;2024-02-21T08:10:09;8.48;;;2.47;;
71104;SDS011;58760;48.716;8.962;2024-02-21T08:12:35;10.68;;;2.45;;
71104;SDS011;58760;48.716;8.962;2024-02-21T08:15:01;10.80;;;2.92;;
71104;SDS011;58760;48.716;8.962;2024-02-21T08:17:28;10.63;;;2.25;;
71104;SDS011;58760;48.716;8.962;2024-02-21T08:19:54;10.18;;;2.10;;
71104;SDS011;58760;48.716;8.962;2024-02-21T08:22:20;7.60;;;2.17;;
71104;SDS011;58760;48.716;8.962;2024-02-21T08:24:45;12.18;;;2.92;;
71104;SDS011;58760;48.716;8.962;2024-02-21T08:27:11;7.88;;;2.45;;
71104;SDS011;58760;48.716;8.962;2024-02-21T08:29:36;16.38;;;2.55;;
71104;SDS011;58760;48.716;8.962;2024-02-21T08:32:01;7.40;;;2.50;;
71104;SDS011;58760;48.716;8.962;2024-02-21T08:34:27;8.63;;;2.38;;
71104;SDS011;58760;48.716;8.962;2024-02-21T08:36:55;8.68;;;2.30;;
71104;SDS011;58760;48.716;8.962;2024-02-21T08:39:21;11.13;;;2.28;;
71104;SDS011;58760;48.716;8.962;2024-02-21T08:41:46;13.68;;;2.70;;
71104;SDS011;58760;48.716;8.962;2024-02-21T08:44:11;9.00;;;2.45;;
71104;SDS011;58760;48.716;8.962;2024-02-21T08:46:37;12.95;;;2.60;;
71104;SDS011;58760;48.716;8.962;2024-02-21T08:49:05;8.55;;;2.42;;
71104;SDS011;58760;48.716;8.962;2024-02-21T08:51:31;8.50;;;2.40;;
71104;SDS011;58760;48.716;8.962;2024-02-21T08:53:56;6.90;;;2.15;;
71104;SDS011;58760;48.716;8.962;2024-02-21T08:56:22;8.15;;;2.38;;
71104;SDS011;58760;48.716;8.962;2024-02-21T08:58:47;9.88;;;2.50;;
71104;SDS011;58760;48.716;8.962;2024-02-21T09:01:12;10.85;;;2.55;;
71104;SDS011;58760;48.716;8.962;2024-02-21T09:03:38;11.60;;;3.03;;
71104;SDS011;58760;48.716;8.962;2024-02-21T09:06:04;10.57;;;2.75;;
71104;SDS011;58760;48.716;8.962;2024-02-21T09:08:30;12.05;;;2.55;;
71104;SDS011;58760;48.716;8.962;2024-02-21T09:10:56;9.27;;;2.42;;
71104;SDS011;58760;48.716;8.962;2024-02-21T09:13:21;7.82;;;2.55;;
71104;SDS011;58760;48.716;8.962;2024-02-21T09:18:14;10.38;;;2.50;;
71104;SDS011;58760;48.716;8.962;2024-02-21T09:20:40;10.32;;;2.58;;
71104;SDS011;58760;48.716;8.962;2024-02-21T09:23:06;9.32;;;2.28;;
71104;SDS011;58760;48.716;8.962;2024-02-21T09:25:31;7.82;;;2.22;;
71104;SDS011;58760;48.716;8.962;2024-02-21T09:27:57;8.88;;;2.58;;
71104;SDS011;58760;48.716;8.962;2024-02-21T09:30:23;10.98;;;2.40;;
71104;SDS011;58760;48.716;8.962;2024-02-21T09:32:49;7.50;;;2.00;;
71104;SDS011;58760;48.716;8.962;2024-02-21T09:35:18;11.43;;;2.47;;
71104;SDS011;58760;48.716;8.962;2024-02-21T09:37:43;8.55;;;2.53;;
71104;SDS011;58760;48.716;8.962;2024-02-21T09:40:09;7.78;;;2.10;;
71104;SDS011;58760;48.716;8.962;2024-02-21T09:42:38;11.23;;;2.88;;
71104;SDS011;58760;48.716;8.962;2024-02-21T09:45:20;11.65;;;2.50;;
71104;SDS011;58760;48.716;8.962;2024-02-21T09:50:37;11.13;;;2.22;;
71104;SDS011;58760;48.716;8.962;2024-02-21T09:53:05;13.80;;;2.25;;
71104;SDS011;58760;48.716;8.962;2024-02-21T09:55:32;9.70;;;2.35;;
71104;SDS011;58760;48.716;8.962;2024-02-21T09:58:01;13.15;;;2.42;;
71104;SDS011;58760;48.716;8.962;2024-02-21T10:00:27;8.82;;;2.58;;
71104;SDS011;58760;48.716;8.962;2024-02-21T10:02:53;10.05;;;2.08;;
71104;SDS011;58760;48.716;8.962;2024-02-21T10:05:19;17.02;;;2.63;;
71104;SDS011;58760;48.716;8.962;2024-02-21T10:07:45;8.70;;;2.42;;
71104;SDS011;58760;48.716;8.962;2024-02-21T10:10:11;10.35;;;2.30;;
71104;SDS011;58760;48.716;8.962;2024-02-21T10:12:47;11.10;;;2.30;;
71104;SDS011;58760;48.716;8.962;2024-02-21T10:15:19;12.07;;;2.00;;
71104;SDS011;58760;48.716;8.962;2024-02-21T10:17:49;9.43;;;2.08;;
71104;SDS011;58760;48.716;8.962;2024-02-21T10:20:15;6.80;;;2.10;;
71104;SDS011;58760;48.716;8.962;2024-02-21T10:22:41;14.88;;;2.83;;
71104;SDS011;58760;48.716;8.962;2024-02-21T10:25:10;12.88;;;2.30;;
71104;SDS011;58760;48.716;8.962;2024-02-21T10:27:37;10.18;;;2.40;;
71104;SDS011;58760;48.716;8.962;2024-02-21T10:30:12;8.95;;;2.50;;
71104;SDS011;58760;48.716;8.962;2024-02-21T10:32:48;9.85;;;2.22;;
71104;SDS011;58760;48.716;8.962;2024-02-21T10:35:27;8.32;;;1.90;;
71104;SDS011;58760;48.716;8.962;2024-02-21T10:37:57;9.75;;;2.03;;
71104;SDS011;58760;48.716;8.962;2024-02-21T10:40:23;9.27;;;2.45;;
71104;SDS011;58760;48.716;8.962;2024-02-21T10:42:51;13.00;;;2.90;;
71104;SDS011;58760;48.716;8.962;2024-02-21T10:45:26;12.18;;;2.40;;
71104;SDS011;58760;48.716;8.962;2024-02-21T10:48:12;9.68;;;2.60;;
71104;SDS011;58760;48.716;8.962;2024-02-21T10:58:50;7.63;;;1.95;;
71104;SDS011;58760;48.716;8.962;2024-02-21T11:01:15;7.65;;;1.90;;
71104;SDS011;58760;48.716;8.962;2024-02-21T11:03:43;7.90;;;1.75;;
71104;SDS011;58760;48.716;8.962;2024-02-21T11:06:13;7.68;;;1.70;;
71104;SDS011;58760;48.716;8.962;2024-02-21T11:08:42;9.52;;;2.08;;
71104;SDS011;58760;48.716;8.962;2024-02-21T11:11:07;10.68;;;1.92;;
71104;SDS011;58760;48.716;8.962;2024-02-21T11:13:36;10.65;;;1.63;;
71104;SDS011;58760;48.716;8.962;2024-02-21T11:16:21;7.63;;;1.58;;
71104;SDS011;58760;48.716;8.962;2024-02-21T11:18:48;9.05;;;2.25;;
71104;SDS011;58760;48.716;8.962;2024-02-21T11:21:13;7.10;;;1.90;;
71104;SDS011;58760;48.716;8.962;2024-02-21T11:23:39;8.90;;;1.67;;
71104;SDS011;58760;48.716;8.962;2024-02-21T11:28:31;9.52;;;1.98;;
71104;SDS011;58760;48.716;8.962;2024-02-21T11:31:06;8.13;;;1.90;;
71104;SDS011;58760;48.716;8.962;2024-02-21T11:33:34;5.20;;;1.20;;
71104;SDS011;58760;48.716;8.962;2024-02-21T11:36:00;6.68;;;1.63;;
71104;SDS011;58760;48.716;8.962;2024-02-21T11:38:25;8.02;;;1.75;;
71104;SDS011;58760;48.716;8.962;2024-02-21T11:40:50;9.15;;;1.77;;
71104;SDS011;58760;48.716;8.962;2024-02-21T11:43:16;8.02;;;1.90;;
71104;SDS011;58760;48.716;8.962;2024-02-21T11:45:42;7.07;;;1.77;;
71104;SDS011;58760;48.716;8.962;2024-02-21T11:48:07;8.07;;;2.20;;
71104;SDS011;58760;48.716;8.962;2024-02-21T11:50:36;6.38;;;1.40;;
71104;SDS011;58760;48.716;8.962;2024-02-21T11:53:02;6.30;;;1.13;;
71104;SDS011;58760;48.716;8.962;2024-02-21T11:55:28;9.07;;;1.50;;
71104;SDS011;58760;48.716;8.962;2024-02-21T11:57:54;5.38;;;1.50;;
71104;SDS011;58760;48.716;8.962;2024-02-21T12:00:19;6.70;;;1.50;;
71104;SDS011;58760;48.716;8.962;2024-02-21T12:02:46;4.60;;;1.30;;
71104;SDS011;58760;48.716;8.962;2024-02-21T12:05:11;4.45;;;1.38;;
71104;SDS011;58760;48.716;8.962;2024-02-21T12:07:37;7.03;;;1.70;;
71104;SDS011;58760;48.716;8.962;2024-02-21T12:10:09;5.80;;;1.25;;
71104;SDS011;58760;48.716;8.962;2024-02-21T12:12:35;7.63;;;1.40;;
71104;SDS011;58760;48.716;8.962;2024-02-21T12:15:03;9.05;;;1.90;;
71104;SDS011;58760;48.716;8.962;2024-02-21T12:17:30;9.85;;;2.03;;
71104;SDS011;58760;48.716;8.962;2024-02-21T12:19:57;9.10;;;1.88;;
71104;SDS011;58760;48.716;8.962;2024-02-21T12:22:24;5.60;;;1.35;;
71104;SDS011;58760;48.716;8.962;2024-02-21T12:24:50;5.50;;;1.50;;
71104;SDS011;58760;48.716;8.962;2024-02-21T12:27:15;7.82;;;1.60;;
71104;SDS011;58760;48.716;8.962;2024-02-21T12:29:41;5.10;;;1.30;;
71104;SDS011;58760;48.716;8.962;2024-02-21T12:32:07;5.47;;;1.38;;
71104;SDS011;58760;48.716;8.962;2024-02-21T12:34:32;5.95;;;1.38;;
71104;SDS011;58760;48.716;8.962;2024-02-21T12:36:58;4.22;;;1.13;;
71104;SDS011;58760;48.716;8.962;2024-02-21T12:39:24;7.53;;;1.27;;
71104;SDS011;58760;48.716;8.962;2024-02-21T12:41:52;4.82;;;1.40;;
71104;SDS011;58760;48.716;8.962;2024-02-21T12:46:44;5.38;;;1.58;;
71104;SDS011;58760;48.716;8.962;2024-02-21T12:49:10;6.60;;;1.38;;
71104;SDS011;58760;48.716;8.962;2024-02-21T12:51:36;5.07;;;1.30;;
71104;SDS011;58760;48.716;8.962;2024-02-21T12:54:03;7.22;;;1.30;;
71104;SDS011;58760;48.716;8.962;2024-02-21T12:56:28;5.32;;;1.10;;
71104;SDS011;58760;48.716;8.962;2024-02-21T12:58:56;6.97;;;1.85;;
71104;SDS011;58760;48.716;8.962;2024-02-21T13:01:22;7.25;;;1.20;;
71104;SDS011;58760;48.716;8.962;2024-02-21T13:03:47;4.35;;;1.13;;
71104;SDS011;58760;48.716;8.962;2024-02-21T13:06:13;6.45;;;1.25;;
71104;SDS011;58760;48.716;8.962;2024-02-21T13:08:38;5.70;;;1.35;;
71104;SDS011;58760;48.716;8.962;2024-02-21T13:11:04;10.00;;;1.42;;
71104;SDS011;58760;48.716;8.962;2024-02-21T13:13:30;5.75;;;1.85;;
71104;SDS011;58760;48.716;8.962;2024-02-21T13:15:59;4.80;;;1.15;;
71104;SDS011;58760;48.716;8.962;2024-02-21T13:18:25;5.47;;;1.27;;
71104;SDS011;58760;48.716;8.962;2024-02-21T13:20:51;6.32;;;1.35;;
71104;SDS011;58760;48.716;8.962;2024-02-21T13:23:16;5.10;;;1.20;;
71104;SDS011;58760;48.716;8.962;2024-02-21T13:25:42;3.88;;;1.20;;
71104;SDS011;58760;48.716;8.962;2024-02-21T13:28:09;6.15;;;1.00;;
71104;SDS011;58760;48.716;8.962;2024-02-21T13:30:34;4.47;;;1.10;;
71104;SDS011;58760;48.716;8.962;2024-02-21T13:33:00;3.65;;;1.10;;
71104;SDS011;58760;48.716;8.962;2024-02-21T13:35:28;6.15;;;1.23;;
71104;SDS011;58760;48.716;8.962;2024-02-21T13:37:54;5.53;;;1.35;;
71104;SDS011;58760;48.716;8.962;2024-02-21T13:40:19;5.22;;;1.17;;
71104;SDS011;58760;48.716;8.962;2024-02-21T13:42:45;4.50;;;1.20;;
71104;SDS011;58760;48.716;8.962;2024-02-21T13:45:11;4.32;;;1.00;;
71104;SDS011;58760;48.716;8.962;2024-02-21T13:47:36;6.65;;;1.20;;
71104;SDS011;58760;48.716;8.962;2024-02-21T13:50:02;4.95;;;1.20;;
71104;SDS011;58760;48.716;8.962;2024-02-21T13:52:29;4.75;;;0.90;;
71104;SDS011;58760;48.716;8.962;2024-02-21T13:54:56;4.95;;;1.30;;
71104;SDS011;58760;48.716;8.962;2024-02-21T13:57:21;3.33;;;0.88;;
71104;SDS011;58760;48.716;8.962;2024-02-21T13:59:47;3.80;;;1.10;;
71104;SDS011;58760;48.716;8.962;2024-02-21T14:02:12;5.15;;;1.20;;
71104;SDS011;58760;48.716;8.962;2024-02-21T14:04:38;5.25;;;0.98;;
71104;SDS011;58760;48.716;8.962;2024-02-21T14:07:04;4.57;;;1.05;;
71104;SDS011;58760;48.716;8.962;2024-02-21T14:09:30;6.05;;;1.17;;
71104;SDS011;58760;48.716;8.962;2024-02-21T14:11:56;3.38;;;0.80;;
71104;SDS011;58760;48.716;8.962;2024-02-21T14:22:17;3.92;;;0.90;;
71104;SDS011;58760;48.716;8.962;2024-02-21T14:24:42;3.28;;;0.93;;
71104;SDS011;58760;48.716;8.962;2024-02-21T14:27:08;5.38;;;1.15;;
71104;SDS011;58760;48.716;8.962;2024-02-21T14:29:34;1.40;;;0.63;;
71104;SDS011;58760;48.716;8.962;2024-02-21T14:32:00;5.20;;;0.70;;
71104;SDS011;58760;48.716;8.962;2024-02-21T14:34:25;6.80;;;0.93;;
71104;SDS011;58760;48.716;8.962;2024-02-21T14:36:51;3.60;;;0.93;;
71104;SDS011;58760;48.716;8.962;2024-02-21T14:39:17;3.72;;;0.57;;
71104;SDS011;58760;48.716;8.962;2024-02-21T14:41:42;4.22;;;0.70;;
71104;SDS011;58760;48.716;8.962;2024-02-21T14:44:08;4.38;;;0.90;;
71104;SDS011;58760;48.716;8.962;2024-02-21T14:46:35;2.47;;;0.73;;
71104;SDS011;58760;48.716;8.962;2024-02-21T14:49:00;5.43;;;1.05;;
71104;SDS011;58760;48.716;8.962;2024-02-21T14:51:26;6.50;;;0.98;;
71104;SDS011;58760;48.716;8.962;2024-02-21T14:53:52;3.00;;;1.02;;
71104;SDS011;58760;48.716;8.962;2024-02-21T14:56:18;2.47;;;0.70;;
71104;SDS011;58760;48.716;8.962;2024-02-21T14:58:44;2.40;;;0.73;;
71104;SDS011;58760;48.716;8.962;2024-02-21T15:01:10;3.78;;;1.10;;
71104;SDS011;58760;48.716;8.962;2024-02-21T15:03:35;2.47;;;0.80;;
71104;SDS011;58760;48.716;8.962;2024-02-21T15:06:01;3.15;;;0.88;;
71104;SDS011;58760;48.716;8.962;2024-02-21T15:08:27;4.68;;;0.95;;